createdAt,value
2022-08-22T00:00:56.036Z,98855.06
2022-08-22T00:02:58.077Z,98855.78
2022-08-22T00:03:08.205Z,98871.75
2022-08-22T00:04:22.933Z,98858.56
2022-08-22T00:07:52.539Z,98859.00
2022-08-22T00:11:07.396Z,98854.72
2022-08-22T00:14:09.215Z,98862.56
2022-08-22T00:17:40.495Z,98857.88
2022-08-22T00:21:11.725Z,98852.00
2022-08-22T00:24:23.165Z,98851.22
2022-08-22T00:27:37.908Z,98842.22
2022-08-22T00:30:57.688Z,98843.41
2022-08-22T00:34:06.034Z,98845.75
2022-08-22T00:37:26.429Z,98846.53
2022-08-22T00:40:30.865Z,98855.16
2022-08-22T00:44:08.538Z,98856.31
2022-08-22T00:47:36.321Z,98852.81
2022-08-22T00:50:44.079Z,98851.97
2022-08-22T00:54:06.945Z,98843.78
2022-08-22T00:57:31.635Z,98857.47
2022-08-22T01:00:43.613Z,98850.00
2022-08-22T01:03:47.130Z,98843.38
2022-08-22T01:07:18.437Z,98823.41
2022-08-22T01:10:28.619Z,98836.72
2022-08-22T01:14:02.505Z,98823.41
2022-08-22T01:17:10.273Z,98827.34
2022-08-22T01:20:43.615Z,98812.06
2022-08-22T01:24:22.597Z,98815.19
2022-08-22T01:27:31.876Z,98808.13
2022-08-22T01:31:04.759Z,98808.13
2022-08-22T01:34:44.192Z,98806.16
2022-08-22T01:37:58.457Z,98805.81
2022-08-22T01:41:17.189Z,98809.72
2022-08-22T01:44:37.345Z,98792.88
2022-08-22T01:48:00.837Z,98786.22
2022-08-22T01:51:26.079Z,98799.50
2022-08-22T01:54:36.002Z,98793.25
2022-08-22T01:58:01.134Z,98792.47
2022-08-22T02:01:16.695Z,98801.84
2022-08-22T02:04:56.267Z,98801.84
2022-08-22T02:08:40.570Z,98796.31
2022-08-22T02:11:55.433Z,98793.13
2022-08-22T02:15:08.090Z,98811.13
2022-08-22T02:18:17.570Z,98815.00
2022-08-22T02:21:31.029Z,98791.50
2022-08-22T02:25:09.214Z,98816.53
2022-08-22T02:28:19.956Z,98815.72
2022-08-22T02:31:43.424Z,98814.09
2022-08-22T02:35:00.457Z,98809.00
2022-08-22T02:38:29.014Z,98808.53
2022-08-22T02:41:55.651Z,98801.88
2022-08-22T02:45:15.714Z,98792.91
2022-08-22T02:48:40.883Z,98788.16
2022-08-22T02:51:57.876Z,98795.25
2022-08-22T02:55:20.062Z,98796.78
2022-08-22T02:58:31.806Z,98788.50
2022-08-22T03:01:38.449Z,98799.44
2022-08-22T03:04:42.524Z,98805.66
2022-08-22T03:07:51.142Z,98787.22
2022-08-22T03:11:30.046Z,98794.63
2022-08-22T03:14:44.780Z,98805.88
2022-08-22T03:17:59.832Z,98809.31
2022-08-22T03:21:20.595Z,98802.81
2022-08-22T03:24:48.999Z,98804.00
2022-08-22T03:28:00.322Z,98809.00
2022-08-22T03:31:18.107Z,98814.34
2022-08-22T03:34:27.175Z,98798.16
2022-08-22T03:37:38.106Z,98815.38
2022-08-22T03:41:00.479Z,98810.25
2022-08-22T03:44:37.488Z,98817.94
2022-08-22T03:48:17.852Z,98819.94
2022-08-22T03:51:30.429Z,98821.53
2022-08-22T03:54:43.949Z,98828.31
2022-08-22T03:57:54.688Z,98824.28
2022-08-22T04:01:37.925Z,98826.88
2022-08-22T04:04:57.450Z,98835.13
2022-08-22T04:08:14.536Z,98839.06
2022-08-22T04:11:23.099Z,98816.56
2022-08-22T04:14:54.687Z,98840.91
2022-08-22T04:18:05.319Z,98844.28
2022-08-22T04:21:16.351Z,98830.63
2022-08-22T04:24:52.451Z,98831.41
2022-08-22T04:28:13.438Z,98825.81
2022-08-22T04:31:22.441Z,98828.19
2022-08-22T04:34:41.877Z,98817.28
2022-08-22T04:37:59.402Z,98834.50
2022-08-22T04:41:13.593Z,98820.81
2022-08-22T04:44:24.040Z,98805.91
2022-08-22T04:47:54.008Z,98827.59
2022-08-22T04:51:12.577Z,98811.91
2022-08-22T04:54:32.737Z,98805.72
2022-08-22T04:57:45.637Z,98828.13
2022-08-22T05:01:09.315Z,98838.31
2022-08-22T05:04:14.000Z,98814.03
2022-08-22T05:07:24.155Z,98838.75
2022-08-22T05:10:33.021Z,98823.56
2022-08-22T05:13:47.351Z,98834.53
2022-08-22T05:16:52.265Z,98827.88
2022-08-22T05:19:57.317Z,98818.84
2022-08-22T05:23:06.650Z,98825.16
2022-08-22T05:26:21.779Z,98822.38
2022-08-22T05:29:28.976Z,98807.41
2022-08-22T05:32:39.341Z,98846.63
2022-08-22T05:35:49.671Z,98831.66
2022-08-22T05:38:58.778Z,98829.59
2022-08-22T05:42:03.515Z,98826.84
2022-08-22T05:45:12.175Z,98837.63
2022-08-22T05:48:26.646Z,98837.56
2022-08-22T05:51:45.271Z,98825.31
2022-08-22T05:55:04.024Z,98850.41
2022-08-22T05:58:31.089Z,98860.63
2022-08-22T06:01:53.921Z,98853.94
2022-08-22T06:05:03.390Z,98835.13
2022-08-22T06:08:14.296Z,98850.47
2022-08-22T06:11:23.407Z,98834.53
2022-08-22T06:14:31.318Z,98867.22
2022-08-22T06:17:42.757Z,98855.88
2022-08-22T06:20:52.158Z,98861.88
2022-08-22T06:24:00.267Z,98853.75
2022-08-22T06:27:10.115Z,98866.75
2022-08-22T06:30:14.591Z,98853.88
2022-08-22T06:33:22.552Z,98870.88
2022-08-22T06:36:32.712Z,98886.19
2022-08-22T06:39:38.730Z,98887.75
2022-08-22T06:42:44.456Z,98901.91
2022-08-22T06:45:47.117Z,98898.47
2022-08-22T06:48:49.871Z,98894.22
2022-08-22T06:51:53.434Z,98894.72
2022-08-22T06:55:02.815Z,98892.44
2022-08-22T06:58:17.591Z,98901.56
2022-08-22T07:01:28.122Z,98905.53
2022-08-22T07:04:30.839Z,98903.63
2022-08-22T07:07:33.037Z,98895.81
2022-08-22T07:10:35.160Z,98908.03
2022-08-22T07:13:41.860Z,98907.63
2022-08-22T07:17:04.317Z,98912.31
2022-08-22T07:20:11.041Z,98911.91
2022-08-22T07:23:24.835Z,98900.91
2022-08-22T07:26:51.490Z,98909.38
2022-08-22T07:30:06.913Z,98907.72
2022-08-22T07:33:39.784Z,98917.03
2022-08-22T07:37:08.789Z,98911.69
2022-08-22T07:40:20.403Z,98924.94
2022-08-22T07:43:22.259Z,98923.91
2022-08-22T07:46:28.968Z,98921.31
2022-08-22T07:49:36.152Z,98925.69
2022-08-22T07:52:44.316Z,98913.56
2022-08-22T07:55:49.589Z,98913.19
2022-08-22T07:59:13.216Z,98919.06
2022-08-22T08:02:17.668Z,98924.63
2022-08-22T08:05:24.153Z,98925.03
2022-08-22T08:08:42.058Z,98924.63
2022-08-22T08:11:45.251Z,98917.34
2022-08-22T08:14:52.821Z,98921.25
2022-08-22T08:18:00.577Z,98923.63
2022-08-22T08:21:06.946Z,98914.81
2022-08-22T08:24:14.558Z,98911.63
2022-08-22T08:27:39.713Z,98913.88
2022-08-22T08:30:48.284Z,98910.22
2022-08-22T08:33:53.736Z,98919.94
2022-08-22T08:37:02.738Z,98914.25
2022-08-22T08:40:16.940Z,98910.63
2022-08-22T08:43:51.224Z,98908.13
2022-08-22T08:46:55.911Z,98899.63
2022-08-22T08:50:35.679Z,98903.75
2022-08-22T08:54:03.106Z,98896.66
2022-08-22T08:57:27.180Z,98894.53
2022-08-22T09:00:50.941Z,98890.56
2022-08-22T09:04:04.914Z,98892.22
2022-08-22T09:07:39.338Z,98897.66
2022-08-22T09:11:09.622Z,98889.25
2022-08-22T09:14:15.189Z,98908.44
2022-08-22T09:17:35.581Z,98902.69
2022-08-22T09:21:30.615Z,98902.59
2022-08-22T09:24:48.931Z,98897.56
2022-08-22T09:28:01.254Z,98890.31
2022-08-22T09:31:59.694Z,98897.47
2022-08-22T09:35:27.566Z,98900.28
2022-08-22T09:38:51.601Z,98910.50
2022-08-22T09:42:21.142Z,98911.28
2022-08-22T09:45:34.246Z,98902.31
2022-08-22T09:48:56.659Z,98904.66
2022-08-22T09:52:15.128Z,98899.56
2022-08-22T09:55:59.826Z,98897.75
2022-08-22T09:59:22.610Z,98899.19
2022-08-22T10:02:24.433Z,98901.53
2022-08-22T10:05:44.072Z,98902.84
2022-08-22T10:09:06.087Z,98893.72
2022-08-22T10:12:16.092Z,98884.97
2022-08-22T10:15:31.016Z,98886.75
2022-08-22T10:19:07.104Z,98869.75
2022-08-22T10:22:18.411Z,98886.69
2022-08-22T10:25:32.407Z,98880.53
2022-08-22T10:28:53.427Z,98878.34
2022-08-22T10:32:10.743Z,98859.84
2022-08-22T10:35:37.679Z,98867.00
2022-08-22T10:38:50.035Z,98850.28
2022-08-22T10:42:16.962Z,98864.34
2022-08-22T10:45:35.419Z,98869.78
2022-08-22T10:48:44.733Z,98866.16
2022-08-22T10:52:00.042Z,98837.53
2022-08-22T10:55:28.491Z,98835.78
2022-08-22T10:58:36.472Z,98859.31
2022-08-22T11:01:51.634Z,98843.59
2022-08-22T11:05:14.103Z,98858.06
2022-08-22T11:08:29.077Z,98841.78
2022-08-22T11:12:03.047Z,98844.28
2022-08-22T11:15:52.476Z,98816.25
2022-08-22T11:19:32.302Z,98840.06
2022-08-22T11:23:00.531Z,98842.81
2022-08-22T11:26:33.463Z,98830.44
2022-08-22T11:30:18.198Z,98812.63
2022-08-22T11:33:46.981Z,98829.38
2022-08-22T11:37:00.349Z,98811.66
2022-08-22T11:40:26.919Z,98800.50
2022-08-22T11:43:50.434Z,98796.38
2022-08-22T11:46:58.031Z,98803.59
2022-08-22T11:50:23.526Z,98798.09
2022-08-22T11:53:32.374Z,98813.06
2022-08-22T11:56:50.104Z,98804.38
2022-08-22T12:00:25.139Z,98810.19
2022-08-22T12:03:34.285Z,98790.56
2022-08-22T12:06:56.184Z,98799.63
2022-08-22T12:10:17.327Z,98777.84
2022-08-22T12:13:41.585Z,98789.16
2022-08-22T12:16:51.814Z,98777.31
2022-08-22T12:20:16.382Z,98777.84
2022-08-22T12:23:43.631Z,98785.38
2022-08-22T12:27:06.491Z,98781.38
2022-08-22T12:30:32.979Z,98781.06
2022-08-22T12:33:41.000Z,98774.34
2022-08-22T12:36:56.793Z,98766.66
2022-08-22T12:40:18.822Z,98777.25
2022-08-22T12:43:32.902Z,98774.94
2022-08-22T12:47:01.445Z,98754.13
2022-08-22T12:50:35.051Z,98757.19
2022-08-22T12:54:21.150Z,98754.13
2022-08-22T12:57:32.962Z,98753.94
2022-08-22T13:00:43.861Z,98750.56
2022-08-22T13:04:01.703Z,98735.09
2022-08-22T13:07:10.073Z,98751.72
2022-08-22T13:10:17.384Z,98743.28
2022-08-22T13:13:56.523Z,98748.25
2022-08-22T13:17:13.508Z,98735.72
2022-08-22T13:20:43.611Z,98722.44
2022-08-22T13:23:51.691Z,98742.34
2022-08-22T13:26:57.992Z,98718.06
2022-08-22T13:30:05.812Z,98734.25
2022-08-22T13:33:21.650Z,98730.94
2022-08-22T13:36:24.200Z,98731.00
2022-08-22T13:39:42.585Z,98733.50
2022-08-22T13:42:54.036Z,98704.06
2022-08-22T13:46:02.571Z,98736.34
2022-08-22T13:49:12.589Z,98721.97
2022-08-22T13:52:32.255Z,98714.38
2022-08-22T13:55:49.243Z,98718.78
2022-08-22T13:58:57.614Z,98709.75
2022-08-22T14:02:34.361Z,98712.63
2022-08-22T14:05:48.302Z,98706.84
2022-08-22T14:09:03.058Z,98694.34
2022-08-22T14:12:24.424Z,98686.06
2022-08-22T14:15:44.634Z,98701.13
2022-08-22T14:18:53.895Z,98687.59
2022-08-22T14:22:00.559Z,98698.19
2022-08-22T14:25:17.034Z,98675.75
2022-08-22T14:28:32.502Z,98667.97
2022-08-22T14:31:35.342Z,98687.25
2022-08-22T14:34:42.618Z,98665.94
2022-08-22T14:37:51.939Z,98646.38
2022-08-22T14:41:00.749Z,98660.06
2022-08-22T14:44:33.116Z,98684.09
2022-08-22T14:48:09.945Z,98684.53
2022-08-22T14:51:24.165Z,98670.84
2022-08-22T14:54:28.886Z,98659.16
2022-08-22T14:57:36.184Z,98646.47
2022-08-22T15:00:42.312Z,98651.09
2022-08-22T15:03:59.491Z,98662.84
2022-08-22T15:07:02.458Z,98650.13
2022-08-22T15:10:31.831Z,98659.81
2022-08-22T15:13:40.407Z,98650.56
2022-08-22T15:16:57.725Z,98628.22
2022-08-22T15:20:11.730Z,98654.81
2022-08-22T15:23:23.609Z,98633.88
2022-08-22T15:26:58.041Z,98631.59
2022-08-22T15:30:44.494Z,98652.50
2022-08-22T15:33:48.534Z,98631.09
2022-08-22T15:37:25.118Z,98643.50
2022-08-22T15:40:35.919Z,98645.50
2022-08-22T15:43:49.339Z,98630.78
2022-08-22T15:58:24.025Z,98640.38
2022-08-22T16:01:38.347Z,98635.41
2022-08-22T16:05:12.786Z,98633.72
2022-08-22T16:08:22.481Z,98629.25
2022-08-22T16:11:38.649Z,98624.94
2022-08-22T16:14:41.714Z,98634.38
2022-08-22T16:22:57.768Z,98628.38
2022-08-22T16:25:59.476Z,98621.06
2022-08-22T16:29:04.223Z,98623.31
2022-08-22T16:32:10.489Z,98622.31
2022-08-22T16:35:12.229Z,98614.81
2022-08-22T16:39:04.254Z,98616.88
2022-08-22T16:42:13.297Z,98613.63
2022-08-22T16:45:17.682Z,98620.78
2022-08-22T16:48:37.471Z,98620.41
2022-08-22T16:52:27.951Z,98624.09
2022-08-22T16:55:29.804Z,98628.34
2022-08-22T16:58:57.750Z,98625.13
2022-08-22T17:02:40.997Z,98626.16
2022-08-22T17:05:45.639Z,98626.91
2022-08-22T17:09:00.129Z,98624.94
2022-08-22T17:12:23.946Z,98623.22
2022-08-22T17:15:52.957Z,98633.94
2022-08-22T17:19:05.838Z,98639.38
2022-08-22T17:22:45.975Z,98619.72
2022-08-22T17:26:00.090Z,98633.97
2022-08-22T17:29:24.443Z,98639.41
2022-08-22T17:32:34.917Z,98639.25
2022-08-22T17:36:27.190Z,98640.31
2022-08-22T17:39:56.414Z,98638.19
2022-08-22T17:43:16.161Z,98637.41
2022-08-22T17:46:36.380Z,98646.16
2022-08-22T17:49:41.542Z,98642.00
2022-08-22T17:52:49.348Z,98645.81
2022-08-22T17:56:02.354Z,98647.31
2022-08-22T17:59:56.598Z,98648.72
2022-08-22T18:03:15.499Z,98656.00
2022-08-22T18:06:41.105Z,98653.31
2022-08-22T18:10:00.548Z,98645.75
2022-08-22T18:13:20.696Z,98653.69
2022-08-22T18:16:31.277Z,98652.97
2022-08-22T18:19:50.118Z,98645.41
2022-08-22T18:22:56.892Z,98670.56
2022-08-22T18:26:27.042Z,98670.34
2022-08-22T18:29:42.510Z,98663.75
2022-08-22T18:32:50.034Z,98674.53
2022-08-22T18:36:09.378Z,98675.78
2022-08-22T18:39:25.334Z,98667.72
2022-08-22T18:42:46.209Z,98685.41
2022-08-22T18:45:48.313Z,98681.78
2022-08-22T18:49:14.030Z,98662.13
2022-08-22T18:52:16.064Z,98684.59
2022-08-22T18:55:25.334Z,98669.91
2022-08-22T18:58:58.935Z,98675.28
2022-08-22T19:02:40.297Z,98698.25
2022-08-22T19:06:00.538Z,98707.47
2022-08-22T19:09:32.142Z,98698.66
2022-08-22T19:12:59.900Z,98702.19
2022-08-22T19:16:39.760Z,98707.88
2022-08-22T19:20:21.705Z,98712.03
2022-08-22T19:23:33.069Z,98715.59
2022-08-22T19:26:39.641Z,98718.00
2022-08-22T19:29:41.622Z,98711.16
2022-08-22T19:32:44.650Z,98714.53
2022-08-22T19:35:49.443Z,98717.47
2022-08-22T19:39:08.926Z,98709.59
2022-08-22T19:42:24.440Z,98713.72
2022-08-22T19:45:31.441Z,98685.78
2022-08-22T19:48:49.261Z,98691.19
2022-08-22T19:52:12.017Z,98692.47
2022-08-22T19:55:28.738Z,98708.25
2022-08-22T19:58:55.660Z,98719.28
2022-08-22T20:02:16.414Z,98715.47
2022-08-22T20:05:28.877Z,98715.19
2022-08-22T20:09:01.584Z,98691.63
2022-08-22T20:12:15.242Z,98686.38
2022-08-22T20:15:24.105Z,98688.84
2022-08-22T20:19:00.218Z,98729.88
2022-08-22T20:22:30.422Z,98719.75
2022-08-22T20:25:47.661Z,98717.50
2022-08-22T20:28:56.380Z,98702.19
2022-08-22T20:31:59.135Z,98705.28
2022-08-22T20:35:03.387Z,98700.72
2022-08-22T20:38:15.518Z,98722.72
2022-08-22T20:41:30.587Z,98690.41
2022-08-22T20:44:44.820Z,98716.72
2022-08-22T20:47:55.713Z,98705.81
2022-08-22T20:51:04.770Z,98717.13
2022-08-22T20:54:17.675Z,98711.41
2022-08-22T20:57:20.016Z,98713.66
2022-08-22T21:00:26.032Z,98713.41
2022-08-22T21:03:43.049Z,98712.25
2022-08-22T21:06:50.742Z,98697.97
2022-08-22T21:10:23.643Z,98719.13
2022-08-22T21:13:35.828Z,98717.97
2022-08-22T21:16:38.847Z,98714.03
2022-08-22T21:19:40.567Z,98707.84
2022-08-22T21:22:42.614Z,98728.44
2022-08-22T21:25:58.759Z,98720.94
2022-08-22T21:29:03.066Z,98731.69
2022-08-22T21:32:37.140Z,98727.06
2022-08-22T21:35:39.986Z,98719.94
2022-08-22T21:38:54.393Z,98700.25
2022-08-22T21:41:59.087Z,98725.69
2022-08-22T21:45:06.638Z,98729.78
2022-08-22T21:48:33.435Z,98724.41
2022-08-22T21:51:44.601Z,98729.13
2022-08-22T21:54:46.359Z,98710.78
2022-08-22T21:58:05.776Z,98719.56
2022-08-22T22:01:31.908Z,98726.63
2022-08-22T22:04:34.595Z,98721.94
2022-08-22T22:07:43.934Z,98739.31
2022-08-22T22:10:48.831Z,98736.94
2022-08-22T22:13:51.120Z,98733.63
2022-08-22T22:16:53.151Z,98737.59
2022-08-22T22:19:55.257Z,98739.31
2022-08-22T22:22:57.051Z,98751.34
2022-08-22T22:26:03.411Z,98758.13
2022-08-22T22:29:05.800Z,98756.09
2022-08-22T22:32:10.952Z,98756.75
2022-08-22T22:35:13.698Z,98756.75
2022-08-22T22:38:19.389Z,98757.47
2022-08-22T22:41:25.794Z,98755.78
2022-08-22T22:44:28.364Z,98750.84
2022-08-22T22:47:32.590Z,98771.31
2022-08-22T22:50:38.133Z,98774.44
2022-08-22T22:53:42.906Z,98775.03
2022-08-22T22:56:47.763Z,98772.91
2022-08-22T22:59:49.928Z,98726.66
2022-08-22T23:02:52.895Z,98769.47
2022-08-22T23:05:54.567Z,98763.00
2022-08-22T23:08:57.011Z,98758.06
2022-08-22T23:12:00.552Z,98767.41
2022-08-22T23:15:05.949Z,98773.63
2022-08-22T23:18:08.469Z,98779.47
2022-08-22T23:21:12.907Z,98792.09
2022-08-22T23:24:15.162Z,98800.16
2022-08-22T23:27:17.035Z,98823.13
2022-08-22T23:30:18.943Z,98824.91
2022-08-22T23:33:20.685Z,98829.94
2022-08-22T23:36:24.210Z,98838.09
2022-08-22T23:39:28.071Z,98834.50
2022-08-22T23:42:29.873Z,98827.84
2022-08-22T23:45:31.723Z,98831.41
2022-08-22T23:48:33.562Z,98822.41
2022-08-22T23:51:35.790Z,98827.53
2022-08-22T23:54:37.685Z,98838.16
2022-08-22T23:57:39.569Z,98842.09
